»·PEaware :: N55NT KVGT-KSNA

N55NT :: KVGT-KSNA

FLIGHT INFORMATION

Flight Status: Arrived
Operator: Privately registered:
United States
More flights under this callsign
Pilot: Craig H. (6968)
Aircraft: BEECH AIRCRAFT PREMIER
(PRM1)
More flights by this aircraft type
Origin: KVGT North Las Vegas
United States
Destination: KSNA John Wayne-Orange Co
United States
More flights between these airports :: More routes between these airports
Route: NOTWN5 LAS V538 CRESO FEYLA DSNEE4
File this flight plan on PilotEdge
Remarks:
Altitude:
(Current/Filed)
28,000ft
Speed:
(Current/Filed)
400kts
Departed: 23-Jul-20 04:48 PM
Arrived: 23-Jul-20 05:33 PM
Distance/Time
Traveled:
202nm/0:44
Distance/Time
To Go:
Arrived

Flight Plot

Page will automatically refresh every two minutes.

Flight plan parsing failed; only flown route is shown


Map Options




Map Legend


Flown Route
Filed Route
Departure Airport
Arrival Airport
Navaid (VOR, NDB)
Fix

Horizontal Profiles

Position Reports

Time Latitude Longitude Heading Altitude Ground
Speed
23-Jul-20 16:33 36.209942 -115.199271 314 2200ft 0kts
23-Jul-20 16:34 36.209942 -115.199271 314 2200ft 0kts
23-Jul-20 16:35 36.209942 -115.199271 314 2200ft 0kts
23-Jul-20 16:36 36.209942 -115.199271 314 2200ft 0kts
23-Jul-20 16:37 36.209942 -115.199271 314 2200ft 0kts
23-Jul-20 16:38 36.209942 -115.199271 314 2200ft 0kts
23-Jul-20 16:39 36.209942 -115.199271 314 2200ft 0kts
23-Jul-20 16:40 36.209942 -115.199271 314 2200ft 0kts
23-Jul-20 16:41 36.209942 -115.199271 314 2200ft 0kts
23-Jul-20 16:42 36.209942 -115.199271 314 2200ft 0kts
23-Jul-20 16:43 36.209982 -115.199322 315 2200ft 0kts
23-Jul-20 16:44 36.211038 -115.199232 315 2202ft 10kts
23-Jul-20 16:45 36.212629 -115.202616 268 2210ft 14kts
23-Jul-20 16:46 36.214161 -115.203198 35 2211ft 0kts
23-Jul-20 16:47 36.203430 -115.188541 140 2587ft 162kts
23-Jul-20 16:48 36.169177 -115.217824 282 5060ft 260kts
23-Jul-20 16:49 36.224970 -115.273164 326 9286ft 273kts
23-Jul-20 16:50 36.290586 -115.264075 69 12948ft 290kts
23-Jul-20 16:51 36.250603 -115.205288 193 16149ft 274kts
23-Jul-20 16:52 36.174582 -115.209644 166 19063ft 291kts
23-Jul-20 16:53 36.098315 -115.170492 158 21665ft 305kts
23-Jul-20 16:54 36.015016 -115.160578 183 23985ft 309kts
23-Jul-20 16:55 35.927639 -115.162447 183 26037ft 321kts
23-Jul-20 16:56 35.837481 -115.164079 183 27787ft 334kts
23-Jul-20 16:57 35.744530 -115.192014 228 27882ft 379kts
23-Jul-20 16:58 35.674832 -115.298397 228 27862ft 417kts
23-Jul-20 16:59 35.595533 -115.407409 227 27854ft 438kts
23-Jul-20 17:00 35.512734 -115.519008 227 27857ft 448kts
23-Jul-20 17:01 35.428426 -115.632266 227 27849ft 454kts
23-Jul-20 17:02 35.342701 -115.747062 226 27856ft 456kts
23-Jul-20 17:03 35.257139 -115.861226 226 27848ft 457kts
23-Jul-20 17:04 35.169794 -115.974078 225 27856ft 458kts
23-Jul-20 17:05 35.082051 -116.084159 225 27854ft 446kts
23-Jul-20 17:06 34.996554 -116.191493 225 27863ft 440kts
23-Jul-20 17:07 34.911463 -116.298012 225 27853ft 438kts
23-Jul-20 17:08 34.832210 -116.398122 226 27440ft 425kts
23-Jul-20 17:09 34.753497 -116.498485 226 26255ft 404kts
23-Jul-20 17:10 34.674580 -116.593116 221 25051ft 400kts
23-Jul-20 17:11 34.587558 -116.678557 218 23855ft 404kts
23-Jul-20 17:12 34.501381 -116.763771 221 22652ft 387kts
23-Jul-20 17:13 34.426062 -116.850357 224 21397ft 365kts
23-Jul-20 17:14 34.354691 -116.933219 224 19923ft 336kts
23-Jul-20 17:15 34.291298 -117.006272 224 17554ft 296kts
23-Jul-20 17:16 34.229321 -117.060827 212 14735ft 265kts
23-Jul-20 17:17 34.167650 -117.104090 208 12056ft 251kts
23-Jul-20 17:18 34.104032 -117.138717 205 11938ft 254kts
23-Jul-20 17:19 34.038692 -117.173675 205 11912ft 258kts
23-Jul-20 17:20 33.979441 -117.220052 229 11881ft 257kts
23-Jul-20 17:21 33.932491 -117.285668 230 10630ft 258kts
23-Jul-20 17:22 33.886278 -117.351215 230 9125ft 256kts
23-Jul-20 17:23 33.840559 -117.415800 230 7923ft 244kts
23-Jul-20 17:24 33.806250 -117.484601 249 7522ft 239kts
23-Jul-20 17:25 33.802714 -117.561062 281 6959ft 238kts
23-Jul-20 17:26 33.816790 -117.639241 281 5937ft 231kts
23-Jul-20 17:27 33.830287 -117.713535 281 5043ft 241kts
23-Jul-20 17:28 33.805458 -117.783715 231 3513ft 225kts
23-Jul-20 17:29 33.761320 -117.819540 204 2303ft 172kts
23-Jul-20 17:30 33.719879 -117.840966 205 1310ft 146kts
23-Jul-20 17:31 33.688839 -117.860457 208 268ft 114kts
23-Jul-20 17:32 33.668880 -117.873187 207 63ft 27kts
23-Jul-20 17:33 33.666036 -117.873433 170 63ft 10kts

Navigation Log

Ident Type
Flight plan parsing failed, navigation log unavailable